Time;durP1;ratioP1;P1;durP2;ratioP2;P2;SDS_P1;SDS_P2;PMS_P1;PMS_P2;Temp;Humidity;BMP_temperature;BMP_pressure;BME280_temperature;BME280_humidity;BME280_pressure;Samples;Min_cycle;Max_cycle;Signal;HPM_P1;HPM_P2
2022/09/22 00:01:35;;;;;;;5.82;3.08;;;;;;;7.81;70.88;94138.25;6166440;23;20052;-77
2022/09/22 00:04:05;;;;;;;4.70;3.00;;;;;;;7.82;71.21;94139.84;6165669;23;20536;-76
2022/09/22 00:06:37;;;;;;;4.40;2.60;;;;;;;7.72;71.05;94133.91;6165700;23;20060;-76
2022/09/22 00:09:04;;;;;;;5.30;3.58;;;;;;;7.68;71.09;94133.69;6165903;23;20204;-77
2022/09/22 00:11:34;;;;;;;4.95;3.05;;;;;;;7.68;71.18;94135.56;6166027;23;20160;-77
2022/09/22 00:14:19;;;;;;;3.83;2.40;;;;;;;7.67;70.83;94129.44;6165923;23;20148;-76
2022/09/22 00:16:50;;;;;;;4.85;3.10;;;;;;;7.67;70.52;94132.09;6166148;23;19997;-77
2022/09/22 00:19:19;;;;;;;5.32;2.85;;;;;;;7.62;70.95;94130.31;6165755;23;20077;-77
2022/09/22 00:21:45;;;;;;;3.88;2.72;;;;;;;7.62;70.72;94124.22;6164302;23;20009;-77
2022/09/22 00:24:11;;;;;;;3.70;2.65;;;;;;;7.48;71.18;94124.16;6165944;23;20005;-77
2022/09/22 00:26:38;;;;;;;4.78;3.25;;;;;;;7.46;71.25;94126.28;6166013;23;20326;-77
2022/09/22 00:29:06;;;;;;;3.83;2.38;;;;;;;7.49;71.02;94122.28;6165737;23;20299;-77
2022/09/22 00:31:32;;;;;;;3.22;2.33;;;;;;;7.50;71.10;94123.88;6164401;23;20005;-77
2022/09/22 00:33:58;;;;;;;3.53;2.53;;;;;;;7.46;71.18;94128.94;6165955;23;20053;-76
2022/09/22 00:36:25;;;;;;;5.68;2.75;;;;;;;7.50;70.95;94131.81;6165559;23;20008;-77
2022/09/22 00:38:52;;;;;;;5.20;2.83;;;;;;;7.47;70.98;94122.59;6165904;23;20056;-77
2022/09/22 00:41:20;;;;;;;3.53;2.70;;;;;;;7.50;71.08;94126.53;6164072;23;20001;-77
2022/09/22 00:43:50;;;;;;;4.30;2.65;;;;;;;7.44;71.18;94123.91;6165672;23;20002;-77
2022/09/22 00:46:27;;;;;;;4.13;2.88;;;;;;;7.46;71.29;94131.59;6166019;23;20001;-77
2022/09/22 00:49:02;;;;;;;4.53;3.03;;;;;;;7.45;71.17;94130.03;6165677;23;20012;-77
2022/09/22 00:51:35;;;;;;;3.38;2.45;;;;;;;7.43;71.24;94132.19;6165860;23;20078;-77
2022/09/22 00:54:05;;;;;;;4.40;2.58;;;;;;;7.29;71.62;94134.75;6165960;23;20012;-76
2022/09/22 00:56:37;;;;;;;3.20;2.13;;;;;;;7.40;71.38;94133.53;6165970;23;20009;-76
2022/09/22 00:59:08;;;;;;;3.78;2.60;;;;;;;7.44;71.19;94128.44;6164960;23;20001;-76
2022/09/22 01:01:38;;;;;;;3.97;2.58;;;;;;;7.47;71.33;94122.59;6165333;23;20199;-76
2022/09/22 01:04:03;;;;;;;4.63;2.63;;;;;;;7.47;71.27;94122.59;6165570;23;20001;-75
2022/09/22 01:06:29;;;;;;;3.40;2.42;;;;;;;7.51;71.18;94123.59;6165574;23;20004;-76
2022/09/22 01:08:56;;;;;;;4.70;2.10;;;;;;;7.51;71.44;94118.28;6165331;23;19997;-76
2022/09/22 01:11:24;;;;;;;4.45;2.90;;;;;;;7.48;71.58;94120.72;6165198;23;20387;-76
2022/09/22 01:14:41;;;;;;;3.58;2.40;;;;;;;7.51;71.46;94117.47;6165154;23;20052;-76
2022/09/22 01:17:48;;;;;;;3.55;2.33;;;;;;;7.49;71.38;94115.13;6165185;23;20200;-76
2022/09/22 01:20:44;;;;;;;4.80;2.97;;;;;;;7.42;71.76;94110.16;6125413;23;20011;-76
2022/09/22 01:23:46;;;;;;;4.10;2.25;;;;;;;7.44;71.73;94110.66;6165576;23;20005;-76
2022/09/22 01:26:44;;;;;;;4.40;2.75;;;;;;;7.43;71.56;94113.63;6165480;23;20001;-76
2022/09/22 01:29:30;;;;;;;3.63;2.50;;;;;;;7.44;71.46;94108.00;6165159;23;20212;-76
2022/09/22 01:32:15;;;;;;;3.58;2.45;;;;;;;7.44;71.47;94113.31;6164694;23;20009;-76
2022/09/22 01:34:55;;;;;;;4.15;2.33;;;;;;;7.43;71.36;94111.75;6165419;23;20199;-76
2022/09/22 01:37:44;;;;;;;3.20;2.13;;;;;;;7.37;71.68;94112.91;6165080;23;20100;-76
2022/09/22 01:40:35;;;;;;;3.25;2.17;;;;;;;7.38;71.44;94114.47;6165471;23;20022;-76
2022/09/22 01:43:14;;;;;;;4.40;2.25;;;;;;;7.42;71.67;94106.72;6151607;23;20012;-76
2022/09/22 01:45:43;;;;;;;5.32;3.60;;;;;;;7.40;71.54;94100.91;6165270;23;20043;-76
2022/09/22 01:48:17;;;;;;;4.45;2.78;;;;;;;7.42;71.93;94114.69;6165217;23;19998;-76
2022/09/22 01:50:53;;;;;;;4.78;2.40;;;;;;;7.40;71.90;94101.69;6165158;23;19997;-76
2022/09/22 01:53:23;;;;;;;4.43;2.50;;;;;;;7.32;72.27;94107.66;6165180;23;19994;-76
2022/09/22 01:55:54;;;;;;;7.03;2.45;;;;;;;7.33;72.26;94106.59;6165015;23;20068;-76
2022/09/22 01:58:28;;;;;;;4.70;2.30;;;;;;;7.30;72.47;94101.06;6164877;23;20051;-76
2022/09/22 02:00:59;;;;;;;3.72;2.50;;;;;;;7.30;72.48;94101.84;6164649;23;20008;-77
2022/09/22 02:03:35;;;;;;;4.00;2.63;;;;;;;7.25;72.79;94103.78;6165212;23;19998;-77
2022/09/22 02:06:11;;;;;;;3.85;2.75;;;;;;;7.28;72.70;94103.22;6164709;23;20120;-77
2022/09/22 02:08:43;;;;;;;4.00;2.90;;;;;;;7.28;72.80;94093.38;6165169;23;20036;-77
2022/09/22 02:11:15;;;;;;;3.60;2.65;;;;;;;7.20;72.87;94099.31;6164843;23;20003;-77
2022/09/22 02:13:41;;;;;;;7.00;3.40;;;;;;;7.16;73.32;94106.28;6164836;23;19997;-77
2022/09/22 02:16:07;;;;;;;4.65;2.85;;;;;;;7.16;73.22;94100.97;6164759;23;20062;-77
2022/09/22 02:18:47;;;;;;;4.55;3.00;;;;;;;7.11;73.31;94109.78;6164700;23;20008;-77
2022/09/22 02:21:13;;;;;;;5.43;3.13;;;;;;;7.06;73.59;94104.53;6164697;23;20007;-77
2022/09/22 02:23:40;;;;;;;6.40;2.88;;;;;;;6.94;74.06;94102.31;6165013;23;20008;-77
2022/09/22 02:26:07;;;;;;;5.18;3.17;;;;;;;7.02;74.07;94100.88;6164524;23;20001;-76
2022/09/22 02:28:37;;;;;;;3.80;3.05;;;;;;;7.00;74.20;94098.53;6164819;23;20294;-77
2022/09/22 02:31:05;;;;;;;4.68;3.28;;;;;;;6.95;74.33;94100.44;6163363;23;20037;-76
2022/09/22 02:33:35;;;;;;;4.85;3.25;;;;;;;6.98;74.29;94094.56;6164435;23;20258;-76
2022/09/22 02:36:22;;;;;;;4.25;2.75;;;;;;;6.94;74.47;94098.84;6164718;23;20028;-76
2022/09/22 02:39:11;;;;;;;5.28;3.25;;;;;;;6.88;74.66;94100.81;6164747;23;20002;-76
2022/09/22 02:41:55;;;;;;;4.72;3.22;;;;;;;6.82;75.13;94094.78;6164029;23;20005;-76
2022/09/22 02:44:29;;;;;;;4.32;3.00;;;;;;;6.89;74.85;94112.19;6164556;23;20048;-77
2022/09/22 02:47:06;;;;;;;4.50;3.33;;;;;;;6.92;75.63;94109.75;6163647;23;20005;-77
2022/09/22 02:49:33;;;;;;;5.20;3.90;;;;;;;6.89;75.89;94117.47;6164151;23;19993;-77
2022/09/22 02:51:58;;;;;;;5.38;3.80;;;;;;;6.83;76.67;94106.16;6163010;23;20006;-77
2022/09/22 02:54:24;;;;;;;5.45;4.05;;;;;;;6.92;76.63;94123.00;6164440;23;20061;-77
2022/09/22 02:56:49;;;;;;;5.68;4.38;;;;;;;6.91;76.42;94113.47;6164716;23;20073;-77
2022/09/22 02:59:15;;;;;;;5.13;3.55;;;;;;;6.92;75.96;94112.41;6164444;23;20002;-77
2022/09/22 03:01:40;;;;;;;5.85;4.05;;;;;;;6.89;76.28;94107.66;6164214;23;19998;-77
2022/09/22 03:04:06;;;;;;;5.55;3.75;;;;;;;6.96;76.29;94113.44;6164688;23;20004;-77
2022/09/22 03:06:32;;;;;;;6.32;4.03;;;;;;;6.96;76.38;94110.78;6164470;23;20025;-77
2022/09/22 03:08:57;;;;;;;5.68;4.25;;;;;;;6.99;76.12;94117.38;6164452;23;19993;-77
2022/09/22 03:11:24;;;;;;;8.15;4.45;;;;;;;7.00;76.16;94113.63;6164431;23;20002;-76
2022/09/22 03:13:50;;;;;;;6.03;4.35;;;;;;;7.00;76.53;94109.13;6164211;23;20141;-76
2022/09/22 03:16:15;;;;;;;7.88;4.53;;;;;;;6.94;76.71;94120.06;6165098;23;20001;-77
2022/09/22 03:18:41;;;;;;;6.03;4.13;;;;;;;6.82;77.12;94113.31;6164975;23;19998;-77
2022/09/22 03:21:06;;;;;;;5.68;4.00;;;;;;;6.94;76.16;94104.97;6165976;23;20283;-77
2022/09/22 03:23:32;;;;;;;6.22;4.30;;;;;;;6.93;76.33;94113.97;6166003;23;20061;-76
2022/09/22 03:25:57;;;;;;;7.32;4.95;;;;;;;6.97;76.40;94114.22;6166139;23;20040;-77
2022/09/22 03:28:23;;;;;;;7.72;4.20;;;;;;;6.98;76.40;94121.88;6166332;23;20059;-77
2022/09/22 03:30:48;;;;;;;8.25;4.90;;;;;;;6.95;76.38;94119.78;6166090;23;20027;-77
2022/09/22 03:33:14;;;;;;;6.43;5.10;;;;;;;6.86;76.63;94118.84;6165930;23;20028;-77
2022/09/22 03:35:40;;;;;;;5.45;3.75;;;;;;;6.83;76.57;94112.22;6166414;23;20001;-77
2022/09/22 03:38:05;;;;;;;6.60;3.95;;;;;;;6.83;76.49;94112.22;6166494;23;20040;-77
2022/09/22 03:40:30;;;;;;;5.75;4.22;;;;;;;6.77;76.53;94112.56;6166025;23;20002;-77
2022/09/22 03:42:56;;;;;;;5.25;3.60;;;;;;;6.71;76.40;94111.06;6165717;23;20032;-77
2022/09/22 03:45:22;;;;;;;6.93;3.90;;;;;;;6.74;76.49;94118.47;6165962;23;20049;-77
2022/09/22 03:47:47;;;;;;;6.47;4.35;;;;;;;6.68;76.90;94114.28;6166096;23;20010;-77
2022/09/22 03:50:13;;;;;;;5.10;4.18;;;;;;;6.66;76.77;94113.78;6165823;23;19990;-76
2022/09/22 03:52:41;;;;;;;4.45;3.58;;;;;;;6.62;76.71;94119.63;6166378;23;20029;-76
2022/09/22 03:55:08;;;;;;;10.73;4.18;;;;;;;6.67;76.96;94125.94;6166225;23;20024;-76
2022/09/22 03:57:33;;;;;;;6.38;3.78;;;;;;;6.65;76.95;94118.25;6165822;23;20032;-76
2022/09/22 03:59:59;;;;;;;6.03;4.45;;;;;;;6.70;76.82;94117.44;6165810;23;20187;-77
2022/09/22 04:02:24;;;;;;;6.28;4.32;;;;;;;6.64;76.68;94129.94;6166058;23;20008;-77
2022/09/22 04:04:50;;;;;;;5.18;3.95;;;;;;;6.63;77.02;94126.50;6165909;23;20005;-77
2022/09/22 04:07:15;;;;;;;6.47;4.65;;;;;;;6.70;76.84;94128.03;6165689;23;20057;-77
2022/09/22 04:09:40;;;;;;;6.68;4.03;;;;;;;6.76;76.74;94127.69;6166025;23;19996;-77
2022/09/22 04:12:07;;;;;;;7.22;5.03;;;;;;;6.74;77.00;94131.69;6166024;23;20088;-76
2022/09/22 04:14:32;;;;;;;5.80;3.90;;;;;;;6.75;76.82;94128.75;6165844;23;20024;-76
2022/09/22 04:16:58;;;;;;;6.57;4.45;;;;;;;6.84;76.52;94131.59;6165644;23;20001;-76
2022/09/22 04:19:23;;;;;;;6.28;4.45;;;;;;;6.81;76.52;94134.78;6165749;23;20004;-77
2022/09/22 04:21:49;;;;;;;7.78;4.95;;;;;;;6.78;76.72;94132.72;6165614;23;20220;-77
2022/09/22 04:24:15;;;;;;;6.75;4.43;;;;;;;6.80;76.13;94134.00;6165547;23;20056;-77
2022/09/22 04:26:41;;;;;;;7.93;4.72;;;;;;;6.84;76.15;94128.94;6165917;23;20048;-77
2022/09/22 04:29:07;;;;;;;6.65;4.28;;;;;;;6.92;76.04;94135.44;6166070;23;20034;-77
2022/09/22 04:31:32;;;;;;;6.00;4.25;;;;;;;6.96;75.84;94133.81;6165412;23;20009;-77
2022/09/22 04:33:57;;;;;;;12.75;4.43;;;;;;;6.96;75.80;94125.88;6165628;23;19994;-77
2022/09/22 04:36:23;;;;;;;7.07;4.43;;;;;;;7.02;75.52;94122.88;6165655;23;20061;-77
2022/09/22 04:38:48;;;;;;;8.23;4.70;;;;;;;7.08;75.08;94126.25;6165522;23;20020;-77
2022/09/22 04:41:14;;;;;;;6.60;4.45;;;;;;;7.02;74.98;94122.88;6165448;23;20291;-76
2022/09/22 04:43:39;;;;;;;6.18;4.30;;;;;;;7.09;75.00;94127.06;6165632;23;19993;-77
2022/09/22 04:46:05;;;;;;;9.98;4.43;;;;;;;7.11;74.93;94130.22;6165410;23;20056;-76
2022/09/22 04:48:30;;;;;;;5.85;4.22;;;;;;;7.13;74.60;94136.81;6165577;23;20013;-76
2022/09/22 04:50:56;;;;;;;5.70;4.38;;;;;;;7.16;74.63;94127.47;6165598;23;19994;-76
2022/09/22 04:53:21;;;;;;;7.07;4.13;;;;;;;7.16;74.38;94130.91;6165651;23;19993;-76
2022/09/22 04:55:49;;;;;;;6.63;4.88;;;;;;;7.21;74.38;94135.38;6165671;23;20001;-77
2022/09/22 04:58:14;;;;;;;6.03;3.88;;;;;;;7.32;74.18;94136.03;6165636;23;20005;-77
2022/09/22 05:00:40;;;;;;;8.40;5.00;;;;;;;7.35;74.02;94130.97;6165554;23;19997;-76
2022/09/22 05:03:09;;;;;;;6.20;4.22;;;;;;;7.39;73.69;94131.97;6164129;23;20093;-76
2022/09/22 05:05:35;;;;;;;5.03;3.65;;;;;;;7.46;73.41;94128.16;6165460;23;20203;-76
2022/09/22 05:08:00;;;;;;;6.43;4.68;;;;;;;7.49;72.97;94131.03;6165160;23;20056;-76
2022/09/22 05:10:29;;;;;;;7.13;4.30;;;;;;;7.59;72.91;94128.25;6165321;23;20044;-76
2022/09/22 05:12:55;;;;;;;6.45;4.15;;;;;;;7.53;72.81;94134.69;6165297;23;19997;-75
2022/09/22 05:15:21;;;;;;;8.90;4.60;;;;;;;7.58;72.70;94137.25;6163654;23;20198;-75
2022/09/22 05:17:49;;;;;;;6.43;4.15;;;;;;;7.58;72.97;94131.97;6165425;23;20001;-75
2022/09/22 05:20:14;;;;;;;7.55;4.68;;;;;;;7.66;72.67;94138.50;6164993;23;19997;-75
2022/09/22 05:22:40;;;;;;;8.88;4.65;;;;;;;7.73;72.62;94141.56;6165202;23;20061;-75
2022/09/22 05:25:09;;;;;;;6.15;4.10;;;;;;;7.86;73.01;94155.16;6165181;23;20005;-76
2022/09/22 05:27:36;;;;;;;6.75;4.15;;;;;;;7.85;72.42;94138.47;6164832;23;20005;-76
2022/09/22 05:30:04;;;;;;;8.57;5.25;;;;;;;7.87;73.18;94143.50;6164554;23;20235;-78
2022/09/22 05:32:29;;;;;;;7.28;4.72;;;;;;;7.88;72.86;94147.75;6165227;23;20001;-78
2022/09/22 05:34:55;;;;;;;7.35;4.93;;;;;;;7.83;73.22;94149.38;6165071;23;20000;-78
2022/09/22 05:37:20;;;;;;;7.43;5.20;;;;;;;7.94;72.92;94152.69;6164921;23;20025;-79
2022/09/22 05:39:46;;;;;;;7.93;4.50;;;;;;;7.97;72.14;94146.00;6164610;23;20226;-78
2022/09/22 05:42:11;;;;;;;7.25;5.28;;;;;;;7.98;72.24;94150.25;6165145;23;20001;-76
2022/09/22 05:44:40;;;;;;;7.38;5.30;;;;;;;8.03;72.19;94150.94;6165035;23;20375;-76
2022/09/22 05:47:05;;;;;;;9.35;6.00;;;;;;;8.04;72.51;94138.47;6164922;23;20001;-77
2022/09/22 05:49:31;;;;;;;7.45;4.38;;;;;;;8.16;71.75;94157.38;6164694;23;20219;-76
2022/09/22 05:51:57;;;;;;;4.95;3.45;;;;;;;8.21;69.35;94136.03;6165066;23;20019;-75
2022/09/22 05:54:23;;;;;;;4.85;3.45;;;;;;;8.28;69.74;94143.63;6164772;23;20324;-75
2022/09/22 05:56:49;;;;;;;8.45;3.47;;;;;;;8.43;69.33;94142.63;6164512;23;20001;-75
2022/09/22 05:59:15;;;;;;;5.05;3.13;;;;;;;8.57;68.01;94150.63;6164663;23;19994;-75
2022/09/22 06:01:41;;;;;;;4.78;3.08;;;;;;;8.58;68.01;94147.66;6164839;23;20013;-75
2022/09/22 06:04:06;;;;;;;4.60;3.17;;;;;;;8.47;67.81;94146.28;6164898;23;20009;-75
2022/09/22 06:06:32;;;;;;;5.13;3.40;;;;;;;8.52;67.88;94148.06;6164588;23;20001;-76
2022/09/22 06:08:57;;;;;;;4.97;3.67;;;;;;;8.61;67.90;94149.75;6164697;23;20219;-76
2022/09/22 06:11:23;;;;;;;5.30;3.50;;;;;;;8.67;67.19;94153.13;6164865;23;19998;-76
2022/09/22 06:13:52;;;;;;;4.90;3.22;;;;;;;8.53;67.68;94146.97;6164549;23;19998;-76
2022/09/22 06:16:18;;;;;;;6.47;4.30;;;;;;;8.56;68.13;94141.84;6164964;23;20231;-75
2022/09/22 06:18:46;;;;;;;5.68;4.15;;;;;;;8.65;68.51;94147.31;6164777;23;19993;-75
2022/09/22 06:21:12;;;;;;;5.47;3.30;;;;;;;8.72;67.92;94146.91;6164487;23;20235;-75
2022/09/22 06:23:39;;;;;;;9.40;3.72;;;;;;;8.69;67.61;94144.81;6165011;23;20291;-75
2022/09/22 06:26:04;;;;;;;6.50;4.43;;;;;;;8.70;67.57;94157.03;6164895;23;19997;-76
2022/09/22 06:28:31;;;;;;;7.90;4.32;;;;;;;8.71;68.54;94147.97;6164700;23;20005;-76
2022/09/22 06:31:00;;;;;;;5.05;3.50;;;;;;;8.72;67.42;94144.25;6164721;23;20013;-75
2022/09/22 06:33:26;;;;;;;5.60;3.88;;;;;;;8.83;67.46;94156.25;6164591;23;19998;-74
2022/09/22 06:35:53;;;;;;;5.88;3.65;;;;;;;8.80;66.66;94148.88;6164605;23;20001;-74
2022/09/22 06:38:19;;;;;;;4.65;3.13;;;;;;;8.82;67.62;94142.19;6164607;23;20235;-75
2022/09/22 06:40:44;;;;;;;5.95;3.38;;;;;;;8.89;67.44;94147.09;6164393;23;20061;-76
2022/09/22 06:43:16;;;;;;;9.32;3.53;;;;;;;8.81;67.03;94140.63;6164890;23;20001;-76
2022/09/22 06:45:41;;;;;;;5.80;2.80;;;;;;;8.92;66.56;94146.53;6164825;23;20002;-76
2022/09/22 06:48:09;;;;;;;5.22;3.13;;;;;;;8.90;66.79;94143.38;6165072;23;20287;-76
2022/09/22 06:50:35;;;;;;;5.28;3.17;;;;;;;8.88;66.36;94147.41;6164800;23;20278;-76
2022/09/22 06:53:03;;;;;;;5.93;3.00;;;;;;;9.09;66.77;94142.50;6164764;23;20090;-78
2022/09/22 06:55:29;;;;;;;4.28;2.63;;;;;;;9.12;65.44;94149.84;6164469;23;20013;-75
2022/09/22 06:57:57;;;;;;;4.65;2.90;;;;;;;9.18;65.33;94136.19;6166568;23;19994;-76
2022/09/22 07:00:27;;;;;;;7.30;3.25;;;;;;;9.19;64.99;94142.28;6166929;23;20029;-76
2022/09/22 07:03:03;;;;;;;5.05;3.28;;;;;;;9.23;65.18;94137.94;6166821;23;20028;-76
2022/09/22 07:05:29;;;;;;;5.93;3.78;;;;;;;9.35;65.54;94159.50;6167004;23;20048;-85
2022/09/22 07:07:55;;;;;;;5.90;3.55;;;;;;;9.38;65.92;94144.81;6166799;23;20192;-84
2022/09/22 07:10:23;;;;;;;6.50;3.47;;;;;;;9.40;66.78;94143.47;6166681;23;19993;-85
2022/09/22 07:12:49;;;;;;;5.13;3.72;;;;;;;9.54;66.59;94154.06;6166661;23;20009;-84
2022/09/22 07:15:14;;;;;;;6.60;3.80;;;;;;;9.72;65.88;94147.00;6166970;23;20005;-85
2022/09/22 07:17:40;;;;;;;4.82;3.40;;;;;;;9.49;64.32;94140.09;6167096;23;19998;-85
2022/09/22 07:20:07;;;;;;;5.97;3.58;;;;;;;9.68;64.69;94150.59;6167429;23;20307;-85
2022/09/22 07:22:32;;;;;;;4.70;3.42;;;;;;;9.62;65.17;94133.94;6167064;23;20005;-84
2022/09/22 07:24:57;;;;;;;5.68;3.58;;;;;;;9.63;64.69;94146.16;6166819;23;20065;-85
2022/09/22 07:27:24;;;;;;;4.07;3.00;;;;;;;9.73;64.60;94143.28;6166931;23;20005;-85
2022/09/22 07:29:51;;;;;;;7.15;4.25;;;;;;;9.78;65.01;94153.03;6166751;23;19994;-84
2022/09/22 07:32:17;;;;;;;5.32;3.58;;;;;;;9.76;64.29;94155.97;6166586;23;20005;-84
2022/09/22 07:34:43;;;;;;;5.28;4.32;;;;;;;9.84;64.74;94144.63;6166342;23;19997;-75
2022/09/22 07:37:11;;;;;;;4.72;3.13;;;;;;;9.94;63.70;94150.81;6166748;23;20203;-76
2022/09/22 07:39:36;;;;;;;6.65;3.20;;;;;;;9.99;64.16;94148.00;6166846;23;20004;-76
2022/09/22 07:42:02;;;;;;;10.13;4.03;;;;;;;10.06;64.38;94153.72;6166069;23;19998;-76
2022/09/22 07:47:11;;;;;;;6.90;4.05;;;;;;;10.12;63.77;94155.19;6166692;23;20044;-76
2022/09/22 07:49:36;;;;;;;7.35;3.25;;;;;;;10.02;63.12;94166.06;6166518;23;20227;-76
2022/09/22 07:52:02;;;;;;;6.32;4.47;;;;;;;9.85;63.96;94153.41;6166591;23;20004;-76
2022/09/22 07:54:27;;;;;;;7.75;3.80;;;;;;;9.86;64.50;94156.84;6165845;23;19997;-76
2022/09/22 07:57:01;;;;;;;5.43;3.28;;;;;;;9.69;64.79;94152.94;6166027;23;19993;-76
2022/09/22 07:59:26;;;;;;;6.25;3.50;;;;;;;9.83;64.39;94153.69;6166163;23;20045;-76
2022/09/22 08:01:52;;;;;;;5.53;3.22;;;;;;;10.01;63.92;94151.16;6166467;23;20001;-76
2022/09/22 08:04:21;;;;;;;6.43;3.40;;;;;;;10.17;65.02;94159.59;6164725;23;20002;-75
2022/09/22 08:06:54;;;;;;;7.93;3.30;;;;;;;10.30;62.63;94152.66;6165643;23;20025;-76
2022/09/22 08:09:20;;;;;;;4.25;3.10;;;;;;;10.23;62.04;94155.72;6165838;23;19997;-76
2022/09/22 08:11:47;;;;;;;6.43;2.75;;;;;;;10.36;62.00;94156.75;6165737;23;20028;-76
2022/09/22 08:14:13;;;;;;;6.47;4.07;;;;;;;10.52;61.67;94143.84;6165528;23;20051;-75
2022/09/22 08:16:39;;;;;;;11.30;3.58;;;;;;;10.66;61.16;94146.44;6166218;23;20168;-76
2022/09/22 08:19:13;;;;;;;6.82;3.30;;;;;;;10.81;59.49;94159.38;6166021;23;20008;-76
2022/09/22 08:21:44;;;;;;;7.78;2.95;;;;;;;10.75;59.15;94155.28;6166265;23;20006;-77
2022/09/22 08:24:12;;;;;;;4.43;2.90;;;;;;;10.78;59.31;94150.09;6166524;23;19998;-79
2022/09/22 08:26:39;;;;;;;6.85;2.60;;;;;;;10.80;58.86;94153.25;6164333;23;20001;-78
2022/09/22 08:29:06;;;;;;;4.53;2.95;;;;;;;10.86;59.28;94147.78;6165989;23;20053;-79
2022/09/22 08:31:34;;;;;;;5.70;2.30;;;;;;;10.92;57.18;94152.69;6165791;23;20012;-78
2022/09/22 08:33:59;;;;;;;3.72;2.38;;;;;;;10.94;56.99;94150.50;6165585;23;19997;-79
2022/09/22 08:36:26;;;;;;;4.43;2.30;;;;;;;10.98;56.72;94143.44;6166255;23;20053;-79
2022/09/22 08:38:53;;;;;;;3.92;2.20;;;;;;;11.12;54.87;94139.91;6165909;23;20065;-78
2022/09/22 08:41:28;;;;;;;4.35;2.30;;;;;;;11.26;55.44;94140.56;6164698;23;20001;-79
2022/09/22 08:44:01;;;;;;;6.72;2.40;;;;;;;11.35;56.41;94138.69;6165765;23;20173;-78
2022/09/22 08:46:30;;;;;;;5.07;2.10;;;;;;;11.55;56.32;94147.22;6165906;23;20056;-78
2022/09/22 08:52:15;;;;;;;3.55;2.35;;;;;;;11.52;55.70;94150.50;6165750;23;20056;-77
2022/09/22 08:54:41;;;;;;;4.38;2.50;;;;;;;11.51;55.23;94143.59;6165948;23;20008;-79
2022/09/22 08:57:31;;;;;;;6.05;2.83;;;;;;;11.64;54.92;94123.97;6164150;23;20251;-77
2022/09/22 08:59:56;;;;;;;3.17;2.03;;;;;;;11.75;53.71;94130.59;6165304;23;20291;-79
2022/09/22 09:02:25;;;;;;;4.63;2.30;;;;;;;11.80;53.25;94124.31;6165396;23;20016;-77
2022/09/22 09:05:29;;;;;;;4.13;2.58;;;;;;;11.88;53.06;94125.41;6165193;23;20064;-80
2022/09/22 09:08:13;;;;;;;3.78;2.38;;;;;;;11.96;52.22;94133.44;6144820;23;20001;-79
2022/09/22 09:11:06;;;;;;;3.22;1.90;;;;;;;11.90;50.83;94126.69;6164032;23;20052;-79
2022/09/22 09:13:47;;;;;;;2.95;2.13;;;;;;;11.98;51.01;94125.91;6165304;23;20009;-79
2022/09/22 09:16:20;;;;;;;2.30;1.40;;;;;;;12.09;49.29;94129.06;6165300;23;20020;-78
2022/09/22 09:18:56;;;;;;;5.15;1.75;;;;;;;12.15;49.65;94127.81;6165112;23;20001;-78
2022/09/22 09:21:23;;;;;;;2.78;1.73;;;;;;;12.40;49.89;94130.75;6164581;23;19997;-78
2022/09/22 09:23:53;;;;;;;8.25;1.70;;;;;;;12.50;49.83;94122.41;6165329;23;20001;-78
2022/09/22 09:26:20;;;;;;;4.32;1.80;;;;;;;12.73;50.19;94116.81;6165330;23;20048;-78
2022/09/22 09:28:54;;;;;;;4.28;1.65;;;;;;;12.71;49.11;94119.81;6165064;23;20008;-78
2022/09/22 09:31:25;;;;;;;3.25;1.73;;;;;;;12.71;49.41;94121.72;6165471;23;20281;-78
2022/09/22 09:34:00;;;;;;;3.58;1.83;;;;;;;12.69;49.59;94124.69;6165163;23;20031;-78
2022/09/22 09:36:30;;;;;;;10.52;1.92;;;;;;;12.73;48.73;94125.63;6165485;23;20006;-78
2022/09/22 09:38:57;;;;;;;4.05;1.98;;;;;;;12.57;49.83;94111.97;6165137;23;20291;-78
2022/09/22 09:41:31;;;;;;;5.95;2.17;;;;;;;12.53;51.00;94118.28;6165071;23;20094;-78
2022/09/22 09:43:58;;;;;;;3.08;1.70;;;;;;;12.58;48.95;94110.13;6164720;23;20013;-78
2022/09/22 09:46:30;;;;;;;5.57;2.33;;;;;;;12.65;49.76;94105.81;6164602;23;20152;-78
2022/09/22 09:49:16;;;;;;;5.68;3.25;;;;;;;12.80;50.59;94109.88;6164915;23;20044;-78
2022/09/22 09:51:45;;;;;;;4.45;1.63;;;;;;;12.92;47.88;94111.88;6164450;23;20428;-79
2022/09/22 09:54:15;;;;;;;2.95;1.70;;;;;;;13.11;48.79;94099.97;6165028;23;20195;-78
2022/09/22 09:57:07;;;;;;;1.90;1.27;;;;;;;13.37;46.91;94106.03;6164619;23;20001;-79
2022/09/22 10:02:31;;;;;;;6.72;1.80;;;;;;;13.64;46.59;94088.66;6164930;23;20004;-79
2022/09/22 10:05:01;;;;;;;2.08;1.20;;;;;;;13.85;45.27;94096.69;6164817;23;20048;-79
2022/09/22 10:07:40;;;;;;;2.03;1.25;;;;;;;13.87;44.61;94091.03;6164922;23;20001;-79
2022/09/22 10:10:22;;;;;;;2.33;1.30;;;;;;;13.84;43.80;94097.03;6164960;23;20061;-79
2022/09/22 10:12:48;;;;;;;6.55;1.15;;;;;;;13.96;43.51;94093.63;6165070;23;20005;-79
2022/09/22 10:15:25;;;;;;;1.92;0.90;;;;;;;13.92;41.74;94088.16;6164765;23;20254;-78
2022/09/22 10:17:50;;;;;;;3.35;1.20;;;;;;;13.99;44.46;94103.69;6165050;23;20296;-79
2022/09/22 10:20:25;;;;;;;2.33;1.40;;;;;;;13.90;42.68;94089.56;6164933;23;20041;-80
2022/09/22 10:22:51;;;;;;;3.35;1.13;;;;;;;13.88;43.27;94092.59;6165272;23;20004;-80
2022/09/22 10:25:37;;;;;;;4.38;1.40;;;;;;;13.73;42.66;94093.94;6165117;23;20252;-79
2022/09/22 10:28:11;;;;;;;2.08;1.33;;;;;;;13.61;42.88;94083.94;6164338;23;20072;-79
2022/09/22 10:30:37;;;;;;;2.33;1.27;;;;;;;13.59;43.68;94072.78;6164614;23;20052;-79
2022/09/22 10:33:04;;;;;;;2.38;1.42;;;;;;;13.64;42.55;94074.50;6164655;23;20001;-79
2022/09/22 10:35:32;;;;;;;1.75;0.98;;;;;;;13.71;42.98;94073.97;6164634;23;20053;-79
2022/09/22 10:38:22;;;;;;;2.03;1.17;;;;;;;13.77;43.14;94086.84;6163346;23;20002;-80
2022/09/22 10:41:11;;;;;;;4.35;1.17;;;;;;;13.85;42.48;94071.81;6164046;23;19998;-79
2022/09/22 10:44:03;;;;;;;2.10;1.17;;;;;;;13.65;44.72;94079.50;6164893;23;20005;-79
2022/09/22 10:47:06;;;;;;;1.88;1.17;;;;;;;13.66;45.18;94072.28;6164890;23;20024;-80
2022/09/22 10:49:46;;;;;;;2.05;1.15;;;;;;;13.80;44.50;94070.13;6164590;23;20366;-81
2022/09/22 10:52:31;;;;;;;2.83;1.55;;;;;;;13.76;43.36;94079.94;6164320;23;20005;-81
2022/09/22 10:55:08;;;;;;;6.65;1.30;;;;;;;13.80;42.61;94064.00;6164728;23;20032;-81
2022/09/22 10:57:59;;;;;;;1.40;0.85;;;;;;;13.99;41.29;94053.56;6164412;23;20001;-80
2022/09/22 11:00:26;;;;;;;1.40;0.90;;;;;;;14.14;40.76;94054.06;6164431;23;20001;-80
2022/09/22 11:03:20;;;;;;;2.72;1.38;;;;;;;14.37;41.74;94057.13;6164169;23;19997;-80
2022/09/22 11:12:26;;;;;;;1.65;0.95;;;;;;;14.57;40.04;94037.56;6074851;23;20018;-79
2022/09/22 11:15:10;;;;;;;3.15;0.90;;;;;;;14.39;40.88;94052.22;6136970;23;20020;-79
2022/09/22 11:17:52;;;;;;;1.55;0.80;;;;;;;14.47;39.32;94040.63;6164499;23;20001;-80
2022/09/22 11:20:26;;;;;;;3.03;0.87;;;;;;;14.58;39.10;94041.00;6162967;23;20002;-80
2022/09/22 11:23:02;;;;;;;1.48;0.90;;;;;;;14.73;38.04;94044.94;6162948;23;20050;-81
2022/09/22 11:25:54;;;;;;;1.25;0.60;;;;;;;14.72;35.34;94041.47;6164406;23;20113;-81
2022/09/22 11:28:44;;;;;;;1.30;0.63;;;;;;;14.81;35.63;94041.34;6164465;23;20005;-79
2022/09/22 11:31:36;;;;;;;1.45;0.70;;;;;;;14.83;36.03;94028.38;6164256;23;20010;-81
2022/09/22 11:34:23;;;;;;;2.25;0.70;;;;;;;14.93;36.64;94027.94;6164364;23;20090;-81
2022/09/22 11:37:24;;;;;;;1.17;0.77;;;;;;;15.12;37.28;94023.91;6164197;23;20204;-79
2022/09/22 11:40:19;;;;;;;4.10;0.95;;;;;;;15.21;36.92;94017.28;6163878;23;20010;-80
2022/09/22 11:42:53;;;;;;;1.15;0.60;;;;;;;15.28;36.31;94019.41;6164343;23;20020;-78
2022/09/22 11:45:39;;;;;;;0.80;0.60;;;;;;;15.34;35.52;94010.00;6166211;23;20108;-78
2022/09/22 11:48:20;;;;;;;0.63;0.50;;;;;;;15.39;35.97;94012.44;6165969;23;20060;-78
2022/09/22 11:51:03;;;;;;;1.85;0.82;;;;;;;15.51;36.15;94016.22;6165698;23;20001;-79
2022/09/22 11:53:35;;;;;;;;;;;;;;;15.45;40.38;94032.59;6166432;23;20044;-78
2022/09/22 11:56:14;;;;;;;1.40;0.73;;;;;;;15.08;42.61;94018.41;6166216;23;19908;-78
2022/09/22 11:58:43;;;;;;;2.15;1.33;;;;;;;15.04;42.56;94028.25;6166250;23;20049;-80
2022/09/22 12:01:15;;;;;;;4.50;1.38;;;;;;;15.02;42.84;94025.94;6165919;23;20027;-78
2022/09/22 12:03:46;;;;;;;2.05;1.27;;;;;;;15.01;42.96;94037.00;6165881;23;20016;-78
2022/09/22 12:06:23;;;;;;;8.73;1.73;;;;;;;14.78;43.22;94042.03;6165883;23;19997;-78
2022/09/22 12:09:01;;;;;;;3.00;1.60;;;;;;;14.74;44.45;94038.47;6165843;23;20002;-79
2022/09/22 12:11:29;;;;;;;2.88;1.60;;;;;;;14.79;44.63;94035.53;6165944;23;20031;-78
2022/09/22 12:13:57;;;;;;;3.45;1.33;;;;;;;14.91;44.08;94032.84;6165799;23;20017;-77